Slayton, Minnesota
Current Conditions -  °F | °C
As of 1:14 AM on Thursday 23 Oct 2014 (Local Time) from KDVP Reporting Station
Scattered Clouds Scattered Clouds  
Wind Chill: 53°   Ceiling: Unl
Heat Index: 53°   Visibility: 7mi
Dew Point: 52°   Wind: 6mph
Humidity: 98%   Direction: 240°WSW
Pressure: 30.01"   Gusts: NA
Location:  43.99°N, 95.76°W
Report Text: KDVP 230614Z AUTO 24005KT 7SM SCT013 12/11 A3001 RMK AO2 T01150112
Loading
Personal Weather Stations






























Interactive Weather Map
Tropical Storm Tracking
New forecast layout! Learn more

10-Day Weather Forecast

Advertisements
Track Severe Weather on mobile